sensor_id;sensor_type;location;lat;lon;timestamp;P1;durP1;ratioP1;P2;durP2;ratioP2
13951;SDS011;39535;52.192;9.886;2023-04-24T00:00:43;0.77;;;0.70;;
13951;SDS011;39535;52.192;9.886;2023-04-24T00:03:10;1.80;;;1.07;;
13951;SDS011;39535;52.192;9.886;2023-04-24T00:05:37;0.90;;;0.90;;
13951;SDS011;39535;52.192;9.886;2023-04-24T00:08:05;0.80;;;0.80;;
13951;SDS011;39535;52.192;9.886;2023-04-24T00:10:31;0.80;;;0.80;;
13951;SDS011;39535;52.192;9.886;2023-04-24T00:12:59;1.53;;;0.80;;
13951;SDS011;39535;52.192;9.886;2023-04-24T00:15:26;0.83;;;0.83;;
13951;SDS011;39535;52.192;9.886;2023-04-24T00:17:52;0.80;;;0.80;;
13951;SDS011;39535;52.192;9.886;2023-04-24T00:20:18;1.83;;;1.10;;
13951;SDS011;39535;52.192;9.886;2023-04-24T00:22:45;0.80;;;0.80;;
13951;SDS011;39535;52.192;9.886;2023-04-24T00:25:11;0.90;;;0.90;;
13951;SDS011;39535;52.192;9.886;2023-04-24T00:27:38;0.73;;;0.73;;
13951;SDS011;39535;52.192;9.886;2023-04-24T00:30:06;0.87;;;0.83;;
13951;SDS011;39535;52.192;9.886;2023-04-24T00:32:33;1.37;;;1.27;;
13951;SDS011;39535;52.192;9.886;2023-04-24T00:35:00;1.00;;;1.00;;
13951;SDS011;39535;52.192;9.886;2023-04-24T00:37:26;1.07;;;0.97;;
13951;SDS011;39535;52.192;9.886;2023-04-24T00:39:52;1.50;;;1.10;;
13951;SDS011;39535;52.192;9.886;2023-04-24T00:42:19;0.80;;;0.80;;
13951;SDS011;39535;52.192;9.886;2023-04-24T00:44:46;0.93;;;0.93;;
13951;SDS011;39535;52.192;9.886;2023-04-24T00:47:14;1.20;;;1.10;;
13951;SDS011;39535;52.192;9.886;2023-04-24T00:49:41;1.00;;;0.80;;
13951;SDS011;39535;52.192;9.886;2023-04-24T00:52:07;2.13;;;1.20;;
13951;SDS011;39535;52.192;9.886;2023-04-24T00:54:34;1.00;;;0.90;;
13951;SDS011;39535;52.192;9.886;2023-04-24T00:57:00;1.07;;;0.93;;
13951;SDS011;39535;52.192;9.886;2023-04-24T00:59:27;0.83;;;0.83;;
13951;SDS011;39535;52.192;9.886;2023-04-24T01:01:53;1.00;;;0.90;;
13951;SDS011;39535;52.192;9.886;2023-04-24T01:04:22;1.20;;;1.10;;
13951;SDS011;39535;52.192;9.886;2023-04-24T01:06:48;1.10;;;1.00;;
13951;SDS011;39535;52.192;9.886;2023-04-24T01:09:16;1.23;;;1.00;;
13951;SDS011;39535;52.192;9.886;2023-04-24T01:11:43;1.50;;;1.00;;
13951;SDS011;39535;52.192;9.886;2023-04-24T01:14:09;1.00;;;1.00;;
13951;SDS011;39535;52.192;9.886;2023-04-24T01:16:36;1.30;;;1.00;;
13951;SDS011;39535;52.192;9.886;2023-04-24T01:19:03;1.00;;;0.90;;
13951;SDS011;39535;52.192;9.886;2023-04-24T01:21:31;1.87;;;1.20;;
13951;SDS011;39535;52.192;9.886;2023-04-24T01:24:03;1.03;;;1.03;;
13951;SDS011;39535;52.192;9.886;2023-04-24T01:26:31;1.70;;;1.60;;
13951;SDS011;39535;52.192;9.886;2023-04-24T01:28:58;1.37;;;1.20;;
13951;SDS011;39535;52.192;9.886;2023-04-24T01:31:24;3.43;;;1.10;;
13951;SDS011;39535;52.192;9.886;2023-04-24T01:33:51;1.20;;;1.10;;
13951;SDS011;39535;52.192;9.886;2023-04-24T01:36:18;0.87;;;0.87;;
13951;SDS011;39535;52.192;9.886;2023-04-24T01:38:45;0.90;;;0.90;;
13951;SDS011;39535;52.192;9.886;2023-04-24T01:41:13;1.40;;;1.30;;
13951;SDS011;39535;52.192;9.886;2023-04-24T01:43:39;1.10;;;0.93;;
13951;SDS011;39535;52.192;9.886;2023-04-24T01:46:06;1.13;;;0.97;;
13951;SDS011;39535;52.192;9.886;2023-04-24T01:48:33;1.63;;;1.00;;
13951;SDS011;39535;52.192;9.886;2023-04-24T01:51:00;0.80;;;0.80;;
13951;SDS011;39535;52.192;9.886;2023-04-24T01:53:26;0.87;;;0.87;;
13951;SDS011;39535;52.192;9.886;2023-04-24T01:55:52;0.70;;;0.70;;
13951;SDS011;39535;52.192;9.886;2023-04-24T01:58:20;0.97;;;0.83;;
13951;SDS011;39535;52.192;9.886;2023-04-24T02:00:47;1.27;;;0.90;;
13951;SDS011;39535;52.192;9.886;2023-04-24T02:03:13;1.07;;;0.97;;
13951;SDS011;39535;52.192;9.886;2023-04-24T02:05:40;1.23;;;0.90;;
13951;SDS011;39535;52.192;9.886;2023-04-24T02:08:09;0.90;;;0.90;;
13951;SDS011;39535;52.192;9.886;2023-04-24T02:10:36;1.20;;;0.90;;
13951;SDS011;39535;52.192;9.886;2023-04-24T02:13:02;1.60;;;0.70;;
13951;SDS011;39535;52.192;9.886;2023-04-24T02:15:31;0.80;;;0.80;;
13951;SDS011;39535;52.192;9.886;2023-04-24T02:17:57;2.80;;;1.30;;
13951;SDS011;39535;52.192;9.886;2023-04-24T02:20:23;0.80;;;0.80;;
13951;SDS011;39535;52.192;9.886;2023-04-24T02:22:50;1.00;;;0.73;;
13951;SDS011;39535;52.192;9.886;2023-04-24T02:25:16;1.00;;;0.73;;
13951;SDS011;39535;52.192;9.886;2023-04-24T02:27:43;1.67;;;0.70;;
13951;SDS011;39535;52.192;9.886;2023-04-24T02:30:09;0.73;;;0.73;;
13951;SDS011;39535;52.192;9.886;2023-04-24T02:32:37;1.00;;;1.00;;
13951;SDS011;39535;52.192;9.886;2023-04-24T02:35:04;0.80;;;0.80;;
13951;SDS011;39535;52.192;9.886;2023-04-24T02:37:31;0.87;;;0.87;;
13951;SDS011;39535;52.192;9.886;2023-04-24T02:39:57;0.70;;;0.70;;
13951;SDS011;39535;52.192;9.886;2023-04-24T02:42:24;0.80;;;0.80;;
13951;SDS011;39535;52.192;9.886;2023-04-24T02:44:50;1.13;;;0.67;;
13951;SDS011;39535;52.192;9.886;2023-04-24T02:47:17;0.70;;;0.70;;
13951;SDS011;39535;52.192;9.886;2023-04-24T02:49:45;0.80;;;0.77;;
13951;SDS011;39535;52.192;9.886;2023-04-24T02:52:11;0.97;;;0.90;;
13951;SDS011;39535;52.192;9.886;2023-04-24T02:54:38;0.80;;;0.80;;
13951;SDS011;39535;52.192;9.886;2023-04-24T02:57:04;0.87;;;0.70;;
13951;SDS011;39535;52.192;9.886;2023-04-24T02:59:31;1.43;;;0.73;;
13951;SDS011;39535;52.192;9.886;2023-04-24T03:01:57;0.80;;;0.80;;
13951;SDS011;39535;52.192;9.886;2023-04-24T03:04:25;0.73;;;0.73;;
13951;SDS011;39535;52.192;9.886;2023-04-24T03:06:53;0.60;;;0.60;;
13951;SDS011;39535;52.192;9.886;2023-04-24T03:09:19;0.60;;;0.60;;
13951;SDS011;39535;52.192;9.886;2023-04-24T03:11:46;0.50;;;0.50;;
13951;SDS011;39535;52.192;9.886;2023-04-24T03:14:13;1.90;;;0.80;;
13951;SDS011;39535;52.192;9.886;2023-04-24T03:16:39;0.50;;;0.50;;
13951;SDS011;39535;52.192;9.886;2023-04-24T03:19:06;0.80;;;0.80;;
13951;SDS011;39535;52.192;9.886;2023-04-24T03:21:32;0.70;;;0.70;;
13951;SDS011;39535;52.192;9.886;2023-04-24T03:24:02;0.93;;;0.83;;
13951;SDS011;39535;52.192;9.886;2023-04-24T03:26:28;0.80;;;0.80;;
13951;SDS011;39535;52.192;9.886;2023-04-24T03:28:54;5.00;;;0.63;;
13951;SDS011;39535;52.192;9.886;2023-04-24T03:31:21;0.70;;;0.70;;
13951;SDS011;39535;52.192;9.886;2023-04-24T03:33:47;0.77;;;0.70;;
13951;SDS011;39535;52.192;9.886;2023-04-24T03:36:14;0.70;;;0.70;;
13951;SDS011;39535;52.192;9.886;2023-04-24T03:38:40;2.93;;;0.70;;
13951;SDS011;39535;52.192;9.886;2023-04-24T03:41:08;0.53;;;0.50;;
13951;SDS011;39535;52.192;9.886;2023-04-24T03:43:34;0.50;;;0.50;;
13951;SDS011;39535;52.192;9.886;2023-04-24T03:46:01;0.70;;;0.70;;
13951;SDS011;39535;52.192;9.886;2023-04-24T03:48:28;0.73;;;0.60;;
13951;SDS011;39535;52.192;9.886;2023-04-24T03:50:54;0.53;;;0.53;;
13951;SDS011;39535;52.192;9.886;2023-04-24T03:53:20;0.60;;;0.60;;
13951;SDS011;39535;52.192;9.886;2023-04-24T03:55:47;5.37;;;0.67;;
13951;SDS011;39535;52.192;9.886;2023-04-24T03:58:15;0.73;;;0.63;;
13951;SDS011;39535;52.192;9.886;2023-04-24T04:00:42;0.93;;;0.50;;
13951;SDS011;39535;52.192;9.886;2023-04-24T04:03:09;0.60;;;0.60;;
13951;SDS011;39535;52.192;9.886;2023-04-24T04:05:35;3.70;;;0.63;;
13951;SDS011;39535;52.192;9.886;2023-04-24T04:08:02;0.70;;;0.70;;
13951;SDS011;39535;52.192;9.886;2023-04-24T04:10:28;2.30;;;0.70;;
13951;SDS011;39535;52.192;9.886;2023-04-24T04:12:55;1.00;;;0.57;;
13951;SDS011;39535;52.192;9.886;2023-04-24T04:15:22;0.60;;;0.60;;
13951;SDS011;39535;52.192;9.886;2023-04-24T04:17:49;0.67;;;0.67;;
13951;SDS011;39535;52.192;9.886;2023-04-24T04:20:15;1.30;;;0.67;;
13951;SDS011;39535;52.192;9.886;2023-04-24T04:22:41;0.83;;;0.57;;
13951;SDS011;39535;52.192;9.886;2023-04-24T04:25:08;1.03;;;0.50;;
13951;SDS011;39535;52.192;9.886;2023-04-24T04:27:34;1.00;;;0.70;;
13951;SDS011;39535;52.192;9.886;2023-04-24T04:30:01;0.67;;;0.57;;
13951;SDS011;39535;52.192;9.886;2023-04-24T04:32:31;1.23;;;0.60;;
13951;SDS011;39535;52.192;9.886;2023-04-24T04:34:58;0.87;;;0.50;;
13951;SDS011;39535;52.192;9.886;2023-04-24T04:37:27;0.70;;;0.50;;
13951;SDS011;39535;52.192;9.886;2023-04-24T04:39:54;0.60;;;0.60;;
13951;SDS011;39535;52.192;9.886;2023-04-24T04:42:20;0.60;;;0.60;;
13951;SDS011;39535;52.192;9.886;2023-04-24T04:44:48;0.67;;;0.67;;
13951;SDS011;39535;52.192;9.886;2023-04-24T04:47:15;0.50;;;0.50;;
13951;SDS011;39535;52.192;9.886;2023-04-24T04:49:43;0.87;;;0.40;;
13951;SDS011;39535;52.192;9.886;2023-04-24T04:52:09;0.40;;;0.40;;
13951;SDS011;39535;52.192;9.886;2023-04-24T04:54:36;0.50;;;0.50;;
13951;SDS011;39535;52.192;9.886;2023-04-24T04:57:02;0.70;;;0.70;;
13951;SDS011;39535;52.192;9.886;2023-04-24T04:59:29;0.60;;;0.60;;
13951;SDS011;39535;52.192;9.886;2023-04-24T05:01:55;0.67;;;0.60;;
13951;SDS011;39535;52.192;9.886;2023-04-24T05:04:21;0.60;;;0.60;;
13951;SDS011;39535;52.192;9.886;2023-04-24T05:06:49;1.17;;;0.53;;
13951;SDS011;39535;52.192;9.886;2023-04-24T05:09:16;1.70;;;0.67;;
13951;SDS011;39535;52.192;9.886;2023-04-24T05:11:43;1.03;;;0.57;;
13951;SDS011;39535;52.192;9.886;2023-04-24T05:14:09;0.87;;;0.50;;
13951;SDS011;39535;52.192;9.886;2023-04-24T05:16:37;1.50;;;0.70;;
13951;SDS011;39535;52.192;9.886;2023-04-24T05:19:04;1.00;;;0.50;;
13951;SDS011;39535;52.192;9.886;2023-04-24T05:21:30;2.13;;;0.70;;
13951;SDS011;39535;52.192;9.886;2023-04-24T05:23:58;0.40;;;0.40;;
13951;SDS011;39535;52.192;9.886;2023-04-24T05:26:24;0.60;;;0.60;;
13951;SDS011;39535;52.192;9.886;2023-04-24T05:28:50;1.27;;;0.40;;
13951;SDS011;39535;52.192;9.886;2023-04-24T05:31:17;0.90;;;0.47;;
13951;SDS011;39535;52.192;9.886;2023-04-24T05:33:43;1.00;;;0.60;;
13951;SDS011;39535;52.192;9.886;2023-04-24T05:36:09;0.50;;;0.50;;
13951;SDS011;39535;52.192;9.886;2023-04-24T05:38:36;2.07;;;0.50;;
13951;SDS011;39535;52.192;9.886;2023-04-24T05:41:04;0.63;;;0.63;;
13951;SDS011;39535;52.192;9.886;2023-04-24T05:43:30;0.60;;;0.50;;
13951;SDS011;39535;52.192;9.886;2023-04-24T05:45:56;1.23;;;0.70;;
13951;SDS011;39535;52.192;9.886;2023-04-24T05:48:22;1.00;;;0.50;;
13951;SDS011;39535;52.192;9.886;2023-04-24T05:50:49;0.40;;;0.40;;
13951;SDS011;39535;52.192;9.886;2023-04-24T05:53:17;0.63;;;0.43;;
13951;SDS011;39535;52.192;9.886;2023-04-24T05:55:43;1.10;;;0.60;;
13951;SDS011;39535;52.192;9.886;2023-04-24T05:58:11;0.70;;;0.60;;
13951;SDS011;39535;52.192;9.886;2023-04-24T06:00:38;0.50;;;0.50;;
13951;SDS011;39535;52.192;9.886;2023-04-24T06:03:07;0.60;;;0.60;;
13951;SDS011;39535;52.192;9.886;2023-04-24T06:05:34;0.60;;;0.60;;
13951;SDS011;39535;52.192;9.886;2023-04-24T06:08:00;0.60;;;0.60;;
13951;SDS011;39535;52.192;9.886;2023-04-24T06:10:27;0.40;;;0.30;;
13951;SDS011;39535;52.192;9.886;2023-04-24T06:12:53;0.60;;;0.60;;
13951;SDS011;39535;52.192;9.886;2023-04-24T06:15:22;1.43;;;0.50;;
13951;SDS011;39535;52.192;9.886;2023-04-24T06:17:48;0.50;;;0.50;;
13951;SDS011;39535;52.192;9.886;2023-04-24T06:20:15;0.40;;;0.40;;
13951;SDS011;39535;52.192;9.886;2023-04-24T06:22:41;0.50;;;0.50;;
13951;SDS011;39535;52.192;9.886;2023-04-24T06:25:08;1.00;;;0.57;;
13951;SDS011;39535;52.192;9.886;2023-04-24T06:28:19;0.70;;;0.70;;
13951;SDS011;39535;52.192;9.886;2023-04-24T06:30:47;0.97;;;0.70;;
13951;SDS011;39535;52.192;9.886;2023-04-24T06:33:13;0.50;;;0.50;;
13951;SDS011;39535;52.192;9.886;2023-04-24T06:35:52;1.07;;;0.83;;
13951;SDS011;39535;52.192;9.886;2023-04-24T06:38:18;0.80;;;0.80;;
13951;SDS011;39535;52.192;9.886;2023-04-24T06:40:45;0.80;;;0.80;;
13951;SDS011;39535;52.192;9.886;2023-04-24T06:43:11;1.30;;;0.90;;
13951;SDS011;39535;52.192;9.886;2023-04-24T06:45:37;1.17;;;1.07;;
13951;SDS011;39535;52.192;9.886;2023-04-24T06:48:06;1.60;;;1.23;;
13951;SDS011;39535;52.192;9.886;2023-04-24T06:50:32;1.00;;;1.00;;
13951;SDS011;39535;52.192;9.886;2023-04-24T06:52:58;1.73;;;1.37;;
13951;SDS011;39535;52.192;9.886;2023-04-24T06:55:25;2.03;;;1.40;;
13951;SDS011;39535;52.192;9.886;2023-04-24T06:57:51;1.43;;;1.33;;
13951;SDS011;39535;52.192;9.886;2023-04-24T07:00:17;1.60;;;1.50;;
13951;SDS011;39535;52.192;9.886;2023-04-24T07:02:44;1.93;;;1.53;;
13951;SDS011;39535;52.192;9.886;2023-04-24T07:05:12;2.00;;;1.73;;
13951;SDS011;39535;52.192;9.886;2023-04-24T07:07:40;1.70;;;1.60;;
13951;SDS011;39535;52.192;9.886;2023-04-24T07:10:08;1.90;;;1.80;;
13951;SDS011;39535;52.192;9.886;2023-04-24T07:12:34;1.97;;;1.87;;
13951;SDS011;39535;52.192;9.886;2023-04-24T07:15:02;1.70;;;1.60;;
13951;SDS011;39535;52.192;9.886;2023-04-24T07:17:29;3.23;;;2.33;;
13951;SDS011;39535;52.192;9.886;2023-04-24T07:19:55;2.37;;;2.27;;
13951;SDS011;39535;52.192;9.886;2023-04-24T07:22:23;2.20;;;2.10;;
13951;SDS011;39535;52.192;9.886;2023-04-24T07:24:49;2.80;;;2.60;;
13951;SDS011;39535;52.192;9.886;2023-04-24T07:27:16;3.33;;;3.13;;
13951;SDS011;39535;52.192;9.886;2023-04-24T07:29:42;3.23;;;3.03;;
13951;SDS011;39535;52.192;9.886;2023-04-24T07:32:09;3.27;;;3.07;;
13951;SDS011;39535;52.192;9.886;2023-04-24T07:34:35;3.43;;;3.23;;
13951;SDS011;39535;52.192;9.886;2023-04-24T07:37:01;3.77;;;3.47;;
13951;SDS011;39535;52.192;9.886;2023-04-24T07:39:29;4.30;;;4.00;;
13951;SDS011;39535;52.192;9.886;2023-04-24T07:41:56;4.97;;;4.67;;
13951;SDS011;39535;52.192;9.886;2023-04-24T07:44:23;5.00;;;4.60;;
13951;SDS011;39535;52.192;9.886;2023-04-24T07:46:49;4.73;;;4.37;;
13951;SDS011;39535;52.192;9.886;2023-04-24T07:49:16;4.40;;;4.10;;
13951;SDS011;39535;52.192;9.886;2023-04-24T07:51:42;5.27;;;4.77;;
13951;SDS011;39535;52.192;9.886;2023-04-24T07:54:08;6.23;;;5.83;;
13951;SDS011;39535;52.192;9.886;2023-04-24T07:56:36;5.63;;;5.23;;
13951;SDS011;39535;52.192;9.886;2023-04-24T07:59:03;5.53;;;5.13;;
13951;SDS011;39535;52.192;9.886;2023-04-24T08:01:30;6.53;;;6.00;;
13951;SDS011;39535;52.192;9.886;2023-04-24T08:03:56;6.60;;;6.10;;
13951;SDS011;39535;52.192;9.886;2023-04-24T08:06:23;6.77;;;6.27;;
13951;SDS011;39535;52.192;9.886;2023-04-24T08:08:52;6.90;;;6.30;;
13951;SDS011;39535;52.192;9.886;2023-04-24T08:11:19;6.57;;;6.07;;
13951;SDS011;39535;52.192;9.886;2023-04-24T08:13:46;6.20;;;5.70;;
13951;SDS011;39535;52.192;9.886;2023-04-24T08:16:13;5.70;;;5.30;;
13951;SDS011;39535;52.192;9.886;2023-04-24T08:18:39;5.73;;;5.33;;
13951;SDS011;39535;52.192;9.886;2023-04-24T08:21:12;5.53;;;5.13;;
13951;SDS011;39535;52.192;9.886;2023-04-24T08:23:42;5.90;;;5.40;;
13951;SDS011;39535;52.192;9.886;2023-04-24T08:26:08;6.40;;;5.90;;
13951;SDS011;39535;52.192;9.886;2023-04-24T08:28:36;5.40;;;5.00;;
13951;SDS011;39535;52.192;9.886;2023-04-24T08:31:03;5.80;;;5.40;;
13951;SDS011;39535;52.192;9.886;2023-04-24T08:33:30;5.83;;;5.43;;
13951;SDS011;39535;52.192;9.886;2023-04-24T08:35:59;5.60;;;5.10;;
13951;SDS011;39535;52.192;9.886;2023-04-24T08:38:25;5.80;;;5.30;;
13951;SDS011;39535;52.192;9.886;2023-04-24T08:40:52;5.33;;;4.87;;
13951;SDS011;39535;52.192;9.886;2023-04-24T08:43:18;4.63;;;4.23;;
13951;SDS011;39535;52.192;9.886;2023-04-24T08:45:48;5.13;;;4.73;;
13951;SDS011;39535;52.192;9.886;2023-04-24T08:48:16;4.83;;;4.50;;
13951;SDS011;39535;52.192;9.886;2023-04-24T08:50:42;4.17;;;3.80;;
13951;SDS011;39535;52.192;9.886;2023-04-24T08:53:09;3.50;;;3.30;;
13951;SDS011;39535;52.192;9.886;2023-04-24T08:55:37;4.37;;;4.00;;
13951;SDS011;39535;52.192;9.886;2023-04-24T08:58:04;3.73;;;3.53;;
13951;SDS011;39535;52.192;9.886;2023-04-24T09:00:30;3.50;;;3.20;;
13951;SDS011;39535;52.192;9.886;2023-04-24T09:03:00;4.27;;;3.97;;
13951;SDS011;39535;52.192;9.886;2023-04-24T09:05:28;3.80;;;3.57;;
13951;SDS011;39535;52.192;9.886;2023-04-24T09:07:56;3.73;;;3.53;;
13951;SDS011;39535;52.192;9.886;2023-04-24T09:10:23;4.33;;;4.03;;
13951;SDS011;39535;52.192;9.886;2023-04-24T09:12:51;4.63;;;4.20;;
13951;SDS011;39535;52.192;9.886;2023-04-24T09:15:18;5.37;;;4.87;;
13951;SDS011;39535;52.192;9.886;2023-04-24T09:17:45;4.53;;;4.20;;
13951;SDS011;39535;52.192;9.886;2023-04-24T09:20:12;2.97;;;2.77;;
13951;SDS011;39535;52.192;9.886;2023-04-24T09:22:42;3.33;;;3.13;;
13951;SDS011;39535;52.192;9.886;2023-04-24T09:25:09;3.37;;;3.17;;
13951;SDS011;39535;52.192;9.886;2023-04-24T09:27:37;4.30;;;4.00;;
13951;SDS011;39535;52.192;9.886;2023-04-24T09:30:08;3.60;;;3.40;;
13951;SDS011;39535;52.192;9.886;2023-04-24T09:32:35;3.77;;;3.53;;
13951;SDS011;39535;52.192;9.886;2023-04-24T09:35:05;3.67;;;3.37;;
13951;SDS011;39535;52.192;9.886;2023-04-24T09:37:35;3.40;;;3.20;;
13951;SDS011;39535;52.192;9.886;2023-04-24T09:40:11;4.13;;;3.33;;
13951;SDS011;39535;52.192;9.886;2023-04-24T09:42:40;3.37;;;3.07;;
13951;SDS011;39535;52.192;9.886;2023-04-24T09:45:09;2.33;;;2.20;;
13951;SDS011;39535;52.192;9.886;2023-04-24T09:47:36;2.10;;;2.00;;
13951;SDS011;39535;52.192;9.886;2023-04-24T09:50:08;2.80;;;2.57;;
13951;SDS011;39535;52.192;9.886;2023-04-24T09:52:39;2.73;;;2.30;;
13951;SDS011;39535;52.192;9.886;2023-04-24T09:55:11;2.07;;;1.87;;
13951;SDS011;39535;52.192;9.886;2023-04-24T09:57:46;2.63;;;2.27;;
13951;SDS011;39535;52.192;9.886;2023-04-24T10:00:23;2.30;;;2.13;;
13951;SDS011;39535;52.192;9.886;2023-04-24T10:02:50;1.93;;;1.83;;
13951;SDS011;39535;52.192;9.886;2023-04-24T10:05:22;2.13;;;2.03;;
13951;SDS011;39535;52.192;9.886;2023-04-24T10:07:49;2.30;;;2.10;;
13951;SDS011;39535;52.192;9.886;2023-04-24T10:10:18;1.90;;;1.80;;
13951;SDS011;39535;52.192;9.886;2023-04-24T10:12:44;2.10;;;1.90;;
13951;SDS011;39535;52.192;9.886;2023-04-24T10:15:11;1.90;;;1.80;;
13951;SDS011;39535;52.192;9.886;2023-04-24T10:17:39;2.30;;;2.00;;
13951;SDS011;39535;52.192;9.886;2023-04-24T10:20:07;1.97;;;1.87;;
13951;SDS011;39535;52.192;9.886;2023-04-24T10:22:34;2.33;;;2.13;;
13951;SDS011;39535;52.192;9.886;2023-04-24T10:25:03;2.37;;;1.87;;
13951;SDS011;39535;52.192;9.886;2023-04-24T10:27:31;2.23;;;1.80;;
13951;SDS011;39535;52.192;9.886;2023-04-24T10:29:58;1.70;;;1.60;;
13951;SDS011;39535;52.192;9.886;2023-04-24T10:32:27;2.77;;;2.23;;
13951;SDS011;39535;52.192;9.886;2023-04-24T10:34:54;2.33;;;2.20;;
13951;SDS011;39535;52.192;9.886;2023-04-24T10:37:21;2.20;;;2.00;;
13951;SDS011;39535;52.192;9.886;2023-04-24T10:39:51;2.33;;;2.23;;
13951;SDS011;39535;52.192;9.886;2023-04-24T10:42:19;2.07;;;1.97;;
13951;SDS011;39535;52.192;9.886;2023-04-24T10:44:48;2.30;;;2.10;;
13951;SDS011;39535;52.192;9.886;2023-04-24T10:47:14;2.27;;;2.17;;
13951;SDS011;39535;52.192;9.886;2023-04-24T10:49:41;1.73;;;1.63;;
13951;SDS011;39535;52.192;9.886;2023-04-24T10:52:08;2.93;;;2.13;;
13951;SDS011;39535;52.192;9.886;2023-04-24T10:54:36;2.27;;;2.03;;
13951;SDS011;39535;52.192;9.886;2023-04-24T10:57:25;2.13;;;1.97;;
13951;SDS011;39535;52.192;9.886;2023-04-24T11:02:47;2.47;;;2.37;;
13951;SDS011;39535;52.192;9.886;2023-04-24T11:05:15;2.50;;;2.30;;
13951;SDS011;39535;52.192;9.886;2023-04-24T11:10:38;1.33;;;1.23;;
13951;SDS011;39535;52.192;9.886;2023-04-24T11:13:06;1.67;;;1.57;;
13951;SDS011;39535;52.192;9.886;2023-04-24T11:15:32;1.73;;;1.20;;
13951;SDS011;39535;52.192;9.886;2023-04-24T11:18:00;1.10;;;1.10;;
13951;SDS011;39535;52.192;9.886;2023-04-24T11:20:27;0.87;;;0.87;;
13951;SDS011;39535;52.192;9.886;2023-04-24T11:22:54;1.00;;;1.00;;
13951;SDS011;39535;52.192;9.886;2023-04-24T11:25:22;1.13;;;1.10;;
13951;SDS011;39535;52.192;9.886;2023-04-24T11:27:49;1.00;;;1.00;;
13951;SDS011;39535;52.192;9.886;2023-04-24T11:30:17;1.30;;;1.20;;
13951;SDS011;39535;52.192;9.886;2023-04-24T11:32:47;1.27;;;0.90;;
13951;SDS011;39535;52.192;9.886;2023-04-24T11:35:16;1.10;;;1.10;;
13951;SDS011;39535;52.192;9.886;2023-04-24T11:37:44;0.97;;;0.97;;
13951;SDS011;39535;52.192;9.886;2023-04-24T11:40:14;1.30;;;1.20;;
13951;SDS011;39535;52.192;9.886;2023-04-24T11:42:42;1.33;;;1.20;;
13951;SDS011;39535;52.192;9.886;2023-04-24T11:45:10;1.50;;;1.40;;
13951;SDS011;39535;52.192;9.886;2023-04-24T11:47:37;1.50;;;1.30;;
13951;SDS011;39535;52.192;9.886;2023-04-24T11:50:06;1.73;;;1.37;;
13951;SDS011;39535;52.192;9.886;2023-04-24T11:52:38;0.90;;;0.90;;
13951;SDS011;39535;52.192;9.886;2023-04-24T11:55:06;1.20;;;1.20;;
13951;SDS011;39535;52.192;9.886;2023-04-24T11:57:34;1.20;;;1.10;;
13951;SDS011;39535;52.192;9.886;2023-04-24T12:00:01;1.33;;;1.30;;
13951;SDS011;39535;52.192;9.886;2023-04-24T12:02:29;1.07;;;1.00;;
13951;SDS011;39535;52.192;9.886;2023-04-24T12:04:55;1.17;;;1.13;;
13951;SDS011;39535;52.192;9.886;2023-04-24T12:07:22;1.10;;;1.10;;
13951;SDS011;39535;52.192;9.886;2023-04-24T12:09:55;1.53;;;1.40;;
13951;SDS011;39535;52.192;9.886;2023-04-24T12:12:24;1.50;;;1.47;;
13951;SDS011;39535;52.192;9.886;2023-04-24T12:14:52;1.40;;;1.30;;
13951;SDS011;39535;52.192;9.886;2023-04-24T12:17:23;6.93;;;1.83;;
13951;SDS011;39535;52.192;9.886;2023-04-24T12:19:51;1.70;;;1.60;;
13951;SDS011;39535;52.192;9.886;2023-04-24T12:22:18;1.03;;;1.00;;
13951;SDS011;39535;52.192;9.886;2023-04-24T12:24:59;0.37;;;0.37;;
13951;SDS011;39535;52.192;9.886;2023-04-24T12:27:28;0.50;;;0.50;;
13951;SDS011;39535;52.192;9.886;2023-04-24T12:29:56;0.90;;;0.60;;
13951;SDS011;39535;52.192;9.886;2023-04-24T12:32:23;0.90;;;0.73;;
13951;SDS011;39535;52.192;9.886;2023-04-24T12:34:51;0.93;;;0.93;;
13951;SDS011;39535;52.192;9.886;2023-04-24T12:37:20;0.90;;;0.90;;
13951;SDS011;39535;52.192;9.886;2023-04-24T12:40:01;1.97;;;1.07;;
13951;SDS011;39535;52.192;9.886;2023-04-24T12:42:30;1.10;;;1.00;;
13951;SDS011;39535;52.192;9.886;2023-04-24T12:44:57;5.63;;;0.83;;
13951;SDS011;39535;52.192;9.886;2023-04-24T12:47:25;0.80;;;0.80;;
13951;SDS011;39535;52.192;9.886;2023-04-24T12:49:52;0.87;;;0.87;;
13951;SDS011;39535;52.192;9.886;2023-04-24T12:52:20;0.90;;;0.90;;
13951;SDS011;39535;52.192;9.886;2023-04-24T12:54:46;2.20;;;1.10;;
13951;SDS011;39535;52.192;9.886;2023-04-24T12:57:15;0.80;;;0.80;;
13951;SDS011;39535;52.192;9.886;2023-04-24T12:59:41;1.67;;;1.00;;
13951;SDS011;39535;52.192;9.886;2023-04-24T13:02:08;1.43;;;0.87;;
13951;SDS011;39535;52.192;9.886;2023-04-24T13:04:35;0.90;;;0.90;;
13951;SDS011;39535;52.192;9.886;2023-04-24T13:07:02;0.93;;;0.93;;
13951;SDS011;39535;52.192;9.886;2023-04-24T13:09:28;1.40;;;1.00;;
13951;SDS011;39535;52.192;9.886;2023-04-24T13:11:55;1.00;;;1.00;;
13951;SDS011;39535;52.192;9.886;2023-04-24T13:14:23;1.00;;;1.00;;
13951;SDS011;39535;52.192;9.886;2023-04-24T13:16:50;1.10;;;1.10;;
13951;SDS011;39535;52.192;9.886;2023-04-24T13:19:16;1.00;;;1.00;;
13951;SDS011;39535;52.192;9.886;2023-04-24T13:21:44;3.70;;;1.00;;
13951;SDS011;39535;52.192;9.886;2023-04-24T13:24:10;0.93;;;0.93;;
13951;SDS011;39535;52.192;9.886;2023-04-24T13:26:38;0.57;;;0.57;;
13951;SDS011;39535;52.192;9.886;2023-04-24T13:29:04;0.40;;;0.40;;
13951;SDS011;39535;52.192;9.886;2023-04-24T13:31:32;1.10;;;0.60;;
13951;SDS011;39535;52.192;9.886;2023-04-24T13:33:58;0.60;;;0.60;;
13951;SDS011;39535;52.192;9.886;2023-04-24T13:36:25;0.70;;;0.70;;
13951;SDS011;39535;52.192;9.886;2023-04-24T13:38:51;0.80;;;0.70;;
13951;SDS011;39535;52.192;9.886;2023-04-24T13:41:18;0.67;;;0.67;;
13951;SDS011;39535;52.192;9.886;2023-04-24T13:43:44;0.67;;;0.60;;
13951;SDS011;39535;52.192;9.886;2023-04-24T13:46:19;0.60;;;0.60;;
13951;SDS011;39535;52.192;9.886;2023-04-24T13:48:47;0.60;;;0.60;;
13951;SDS011;39535;52.192;9.886;2023-04-24T13:51:14;0.57;;;0.57;;
13951;SDS011;39535;52.192;9.886;2023-04-24T13:53:40;0.50;;;0.50;;
13951;SDS011;39535;52.192;9.886;2023-04-24T13:56:07;0.40;;;0.40;;
13951;SDS011;39535;52.192;9.886;2023-04-24T13:58:34;0.70;;;0.40;;
13951;SDS011;39535;52.192;9.886;2023-04-24T14:01:01;0.53;;;0.43;;
13951;SDS011;39535;52.192;9.886;2023-04-24T14:03:28;0.47;;;0.47;;
13951;SDS011;39535;52.192;9.886;2023-04-24T14:05:56;0.33;;;0.20;;
13951;SDS011;39535;52.192;9.886;2023-04-24T14:08:22;0.37;;;0.30;;
13951;SDS011;39535;52.192;9.886;2023-04-24T14:10:49;0.50;;;0.40;;
13951;SDS011;39535;52.192;9.886;2023-04-24T14:13:16;1.33;;;0.40;;
13951;SDS011;39535;52.192;9.886;2023-04-24T14:15:42;1.47;;;0.50;;
13951;SDS011;39535;52.192;9.886;2023-04-24T14:18:09;0.37;;;0.30;;
13951;SDS011;39535;52.192;9.886;2023-04-24T14:20:35;0.40;;;0.40;;
13951;SDS011;39535;52.192;9.886;2023-04-24T14:23:03;1.20;;;0.50;;
13951;SDS011;39535;52.192;9.886;2023-04-24T14:25:29;0.77;;;0.50;;
13951;SDS011;39535;52.192;9.886;2023-04-24T14:27:56;0.63;;;0.60;;
13951;SDS011;39535;52.192;9.886;2023-04-24T14:30:22;0.70;;;0.70;;
13951;SDS011;39535;52.192;9.886;2023-04-24T14:32:49;0.70;;;0.70;;
13951;SDS011;39535;52.192;9.886;2023-04-24T14:35:15;0.60;;;0.60;;
13951;SDS011;39535;52.192;9.886;2023-04-24T14:37:42;1.03;;;0.70;;
13951;SDS011;39535;52.192;9.886;2023-04-24T14:40:10;0.80;;;0.80;;
13951;SDS011;39535;52.192;9.886;2023-04-24T14:42:37;1.30;;;1.20;;
13951;SDS011;39535;52.192;9.886;2023-04-24T14:45:04;1.20;;;1.10;;
13951;SDS011;39535;52.192;9.886;2023-04-24T14:47:31;1.53;;;1.43;;
13951;SDS011;39535;52.192;9.886;2023-04-24T14:49:58;1.63;;;1.30;;
13951;SDS011;39535;52.192;9.886;2023-04-24T14:52:24;1.77;;;1.40;;
13951;SDS011;39535;52.192;9.886;2023-04-24T14:54:51;1.73;;;1.63;;